sensor_id;sensor_type;location;lat;lon;timestamp;pressure;altitude;pressure_sealevel;temperature;humidity
11987;BME280;6053;51.382;6.768;2023-05-11T00:02:08;101007.63;;;17.17;100.00
11987;BME280;6053;51.382;6.768;2023-05-11T00:04:36;101009.63;;;16.85;100.00
11987;BME280;6053;51.382;6.768;2023-05-11T00:07:06;101012.97;;;17.24;100.00
11987;BME280;6053;51.382;6.768;2023-05-11T00:09:34;101010.34;;;17.70;100.00
11987;BME280;6053;51.382;6.768;2023-05-11T00:12:05;101010.75;;;17.94;100.00
11987;BME280;6053;51.382;6.768;2023-05-11T00:14:33;101014.16;;;16.96;100.00
11987;BME280;6053;51.382;6.768;2023-05-11T00:17:02;101014.84;;;16.76;100.00
11987;BME280;6053;51.382;6.768;2023-05-11T00:19:30;101010.06;;;16.07;100.00
11987;BME280;6053;51.382;6.768;2023-05-11T00:21:58;101009.41;;;16.91;100.00
11987;BME280;6053;51.382;6.768;2023-05-11T00:24:28;101021.97;;;17.41;100.00
11987;BME280;6053;51.382;6.768;2023-05-11T00:26:57;101016.22;;;17.74;100.00
11987;BME280;6053;51.382;6.768;2023-05-11T00:29:25;101013.56;;;17.31;100.00
11987;BME280;6053;51.382;6.768;2023-05-11T00:31:53;101024.72;;;17.36;100.00
11987;BME280;6053;51.382;6.768;2023-05-11T00:34:22;101024.56;;;17.58;100.00
11987;BME280;6053;51.382;6.768;2023-05-11T00:36:50;101020.22;;;17.88;100.00
11987;BME280;6053;51.382;6.768;2023-05-11T00:39:18;101025.03;;;18.08;100.00
11987;BME280;6053;51.382;6.768;2023-05-11T00:41:48;101017.22;;;18.20;100.00
11987;BME280;6053;51.382;6.768;2023-05-11T00:44:17;101020.88;;;18.26;100.00
11987;BME280;6053;51.382;6.768;2023-05-11T00:46:45;101022.53;;;18.27;100.00
11987;BME280;6053;51.382;6.768;2023-05-11T00:49:13;101024.78;;;18.25;100.00
11987;BME280;6053;51.382;6.768;2023-05-11T00:51:43;101028.94;;;18.27;100.00
11987;BME280;6053;51.382;6.768;2023-05-11T00:54:12;101034.81;;;18.21;100.00
11987;BME280;6053;51.382;6.768;2023-05-11T00:56:41;101026.22;;;17.07;100.00
11987;BME280;6053;51.382;6.768;2023-05-11T00:59:11;101032.78;;;17.33;100.00
11987;BME280;6053;51.382;6.768;2023-05-11T01:01:40;101031.59;;;17.18;100.00
11987;BME280;6053;51.382;6.768;2023-05-11T01:04:08;101024.09;;;17.77;100.00
11987;BME280;6053;51.382;6.768;2023-05-11T01:06:46;101032.28;;;17.41;100.00
11987;BME280;6053;51.382;6.768;2023-05-11T01:09:30;101025.84;;;17.35;100.00
11987;BME280;6053;51.382;6.768;2023-05-11T01:12:09;101027.88;;;17.55;100.00
11987;BME280;6053;51.382;6.768;2023-05-11T01:14:48;101020.72;;;17.17;100.00
11987;BME280;6053;51.382;6.768;2023-05-11T01:17:27;101025.69;;;17.62;100.00
11987;BME280;6053;51.382;6.768;2023-05-11T01:20:04;101032.19;;;17.78;100.00
11987;BME280;6053;51.382;6.768;2023-05-11T01:22:53;101030.16;;;16.73;100.00
11987;BME280;6053;51.382;6.768;2023-05-11T01:25:51;101034.84;;;15.65;100.00
11987;BME280;6053;51.382;6.768;2023-05-11T01:28:53;101037.03;;;15.79;100.00
11987;BME280;6053;51.382;6.768;2023-05-11T01:31:32;101027.56;;;15.81;100.00
11987;BME280;6053;51.382;6.768;2023-05-11T01:34:05;101027.31;;;15.21;100.00
11987;BME280;6053;51.382;6.768;2023-05-11T01:36:46;101025.28;;;15.55;100.00
11987;BME280;6053;51.382;6.768;2023-05-11T01:39:19;101024.00;;;16.12;100.00
11987;BME280;6053;51.382;6.768;2023-05-11T01:41:51;101039.84;;;16.07;100.00
11987;BME280;6053;51.382;6.768;2023-05-11T01:44:22;101034.06;;;16.45;100.00
11987;BME280;6053;51.382;6.768;2023-05-11T01:46:54;101034.03;;;16.72;100.00
11987;BME280;6053;51.382;6.768;2023-05-11T01:49:23;101036.91;;;16.50;100.00
11987;BME280;6053;51.382;6.768;2023-05-11T01:51:52;101038.78;;;16.40;100.00
11987;BME280;6053;51.382;6.768;2023-05-11T01:54:22;101038.38;;;15.77;100.00
11987;BME280;6053;51.382;6.768;2023-05-11T01:56:52;101037.28;;;15.78;100.00
11987;BME280;6053;51.382;6.768;2023-05-11T01:59:21;101043.88;;;16.80;100.00
11987;BME280;6053;51.382;6.768;2023-05-11T02:01:53;101040.78;;;16.49;100.00
11987;BME280;6053;51.382;6.768;2023-05-11T02:04:22;101051.63;;;16.46;100.00
11987;BME280;6053;51.382;6.768;2023-05-11T02:06:53;101044.34;;;17.09;100.00
11987;BME280;6053;51.382;6.768;2023-05-11T02:09:23;101051.59;;;16.14;100.00
11987;BME280;6053;51.382;6.768;2023-05-11T02:11:54;101049.31;;;16.38;100.00
11987;BME280;6053;51.382;6.768;2023-05-11T02:14:23;101055.34;;;16.57;100.00
11987;BME280;6053;51.382;6.768;2023-05-11T02:16:56;101054.16;;;16.80;100.00
11987;BME280;6053;51.382;6.768;2023-05-11T02:19:25;101044.44;;;16.23;100.00
11987;BME280;6053;51.382;6.768;2023-05-11T02:21:55;101057.72;;;15.67;100.00
11987;BME280;6053;51.382;6.768;2023-05-11T02:24:24;101053.44;;;16.30;100.00
11987;BME280;6053;51.382;6.768;2023-05-11T02:26:54;101054.69;;;16.44;100.00
11987;BME280;6053;51.382;6.768;2023-05-11T02:29:23;101059.75;;;16.20;100.00
11987;BME280;6053;51.382;6.768;2023-05-11T02:31:58;101055.78;;;15.28;100.00
11987;BME280;6053;51.382;6.768;2023-05-11T02:34:30;101051.16;;;15.56;100.00
11987;BME280;6053;51.382;6.768;2023-05-11T02:37:01;101057.16;;;15.48;100.00
11987;BME280;6053;51.382;6.768;2023-05-11T02:39:35;101050.16;;;16.11;100.00
11987;BME280;6053;51.382;6.768;2023-05-11T02:42:10;101049.59;;;16.68;100.00
11987;BME280;6053;51.382;6.768;2023-05-11T02:44:44;101056.03;;;17.06;100.00
11987;BME280;6053;51.382;6.768;2023-05-11T02:47:17;101040.78;;;17.19;100.00
11987;BME280;6053;51.382;6.768;2023-05-11T02:49:48;101034.97;;;17.20;100.00
11987;BME280;6053;51.382;6.768;2023-05-11T02:52:21;101037.00;;;16.93;100.00
11987;BME280;6053;51.382;6.768;2023-05-11T02:54:52;101026.16;;;16.64;100.00
11987;BME280;6053;51.382;6.768;2023-05-11T02:57:23;101036.03;;;15.47;100.00
11987;BME280;6053;51.382;6.768;2023-05-11T02:59:51;101035.22;;;16.17;100.00
11987;BME280;6053;51.382;6.768;2023-05-11T03:02:21;101029.78;;;16.06;100.00
11987;BME280;6053;51.382;6.768;2023-05-11T03:04:50;101036.53;;;16.37;100.00
11987;BME280;6053;51.382;6.768;2023-05-11T03:07:18;101032.09;;;16.14;100.00
11987;BME280;6053;51.382;6.768;2023-05-11T03:09:47;101024.19;;;16.00;100.00
11987;BME280;6053;51.382;6.768;2023-05-11T03:12:15;101025.94;;;16.39;100.00
11987;BME280;6053;51.382;6.768;2023-05-11T03:14:44;101024.19;;;16.92;100.00
11987;BME280;6053;51.382;6.768;2023-05-11T03:17:13;101016.28;;;16.46;100.00
11987;BME280;6053;51.382;6.768;2023-05-11T03:19:44;101020.16;;;16.13;100.00
11987;BME280;6053;51.382;6.768;2023-05-11T03:22:12;101014.47;;;15.37;100.00
11987;BME280;6053;51.382;6.768;2023-05-11T03:24:42;101016.28;;;15.26;100.00
11987;BME280;6053;51.382;6.768;2023-05-11T03:27:11;101015.25;;;14.26;100.00
11987;BME280;6053;51.382;6.768;2023-05-11T03:29:40;101013.47;;;15.43;100.00
11987;BME280;6053;51.382;6.768;2023-05-11T03:32:10;101022.56;;;15.83;100.00
11987;BME280;6053;51.382;6.768;2023-05-11T03:34:39;101017.13;;;15.49;100.00
11987;BME280;6053;51.382;6.768;2023-05-11T03:37:09;101019.97;;;16.25;100.00
11987;BME280;6053;51.382;6.768;2023-05-11T03:39:40;101023.41;;;16.69;100.00
11987;BME280;6053;51.382;6.768;2023-05-11T03:42:12;101022.53;;;16.96;100.00
11987;BME280;6053;51.382;6.768;2023-05-11T03:44:44;101023.19;;;17.13;100.00
11987;BME280;6053;51.382;6.768;2023-05-11T03:47:14;101019.31;;;17.19;100.00
11987;BME280;6053;51.382;6.768;2023-05-11T03:49:44;101017.56;;;17.03;100.00
11987;BME280;6053;51.382;6.768;2023-05-11T03:52:14;101014.97;;;16.91;100.00
11987;BME280;6053;51.382;6.768;2023-05-11T03:54:43;101020.09;;;17.10;100.00
11987;BME280;6053;51.382;6.768;2023-05-11T03:57:13;101023.16;;;16.71;100.00
11987;BME280;6053;51.382;6.768;2023-05-11T03:59:41;101023.09;;;15.57;100.00
11987;BME280;6053;51.382;6.768;2023-05-11T04:02:10;101023.44;;;16.10;100.00
11987;BME280;6053;51.382;6.768;2023-05-11T04:04:38;101019.31;;;16.45;100.00
11987;BME280;6053;51.382;6.768;2023-05-11T04:07:06;101014.69;;;16.88;100.00
11987;BME280;6053;51.382;6.768;2023-05-11T04:09:36;101017.16;;;16.84;100.00
11987;BME280;6053;51.382;6.768;2023-05-11T04:12:05;101021.72;;;16.63;100.00
11987;BME280;6053;51.382;6.768;2023-05-11T04:14:33;101022.72;;;16.20;100.00
11987;BME280;6053;51.382;6.768;2023-05-11T04:17:02;101028.13;;;15.83;100.00
11987;BME280;6053;51.382;6.768;2023-05-11T04:19:30;101024.84;;;16.13;100.00
11987;BME280;6053;51.382;6.768;2023-05-11T04:21:58;101024.28;;;16.11;100.00
11987;BME280;6053;51.382;6.768;2023-05-11T04:24:26;101031.06;;;16.52;100.00
11987;BME280;6053;51.382;6.768;2023-05-11T04:26:56;101030.50;;;16.82;100.00
11987;BME280;6053;51.382;6.768;2023-05-11T04:29:25;101038.47;;;17.06;100.00
11987;BME280;6053;51.382;6.768;2023-05-11T04:31:53;101043.88;;;17.17;100.00
11987;BME280;6053;51.382;6.768;2023-05-11T04:34:22;101050.59;;;17.27;100.00
11987;BME280;6053;51.382;6.768;2023-05-11T04:36:50;101051.75;;;17.36;100.00
11987;BME280;6053;51.382;6.768;2023-05-11T04:39:19;101053.13;;;17.28;100.00
11987;BME280;6053;51.382;6.768;2023-05-11T04:41:47;101053.56;;;17.10;100.00
11987;BME280;6053;51.382;6.768;2023-05-11T04:44:17;101055.56;;;17.19;100.00
11987;BME280;6053;51.382;6.768;2023-05-11T04:46:45;101060.78;;;17.48;100.00
11987;BME280;6053;51.382;6.768;2023-05-11T04:49:14;101060.66;;;16.58;100.00
11987;BME280;6053;51.382;6.768;2023-05-11T04:51:42;101055.44;;;16.67;100.00
11987;BME280;6053;51.382;6.768;2023-05-11T04:54:10;101056.03;;;17.06;100.00
11987;BME280;6053;51.382;6.768;2023-05-11T04:56:38;101055.84;;;17.18;100.00
11987;BME280;6053;51.382;6.768;2023-05-11T04:59:07;101062.06;;;16.61;100.00
11987;BME280;6053;51.382;6.768;2023-05-11T05:01:37;101063.91;;;16.77;100.00
11987;BME280;6053;51.382;6.768;2023-05-11T05:04:05;101061.16;;;16.82;100.00
11987;BME280;6053;51.382;6.768;2023-05-11T05:06:34;101070.34;;;16.83;100.00
11987;BME280;6053;51.382;6.768;2023-05-11T05:09:04;101068.19;;;17.32;100.00
11987;BME280;6053;51.382;6.768;2023-05-11T05:11:32;101071.63;;;17.50;100.00
11987;BME280;6053;51.382;6.768;2023-05-11T05:14:01;101072.78;;;17.54;100.00
11987;BME280;6053;51.382;6.768;2023-05-11T05:16:29;101078.78;;;17.30;100.00
11987;BME280;6053;51.382;6.768;2023-05-11T05:19:00;101071.31;;;16.93;100.00
11987;BME280;6053;51.382;6.768;2023-05-11T05:21:28;101078.78;;;16.93;100.00
11987;BME280;6053;51.382;6.768;2023-05-11T05:23:56;101071.75;;;17.23;100.00
11987;BME280;6053;51.382;6.768;2023-05-11T05:26:25;101084.44;;;17.46;100.00
11987;BME280;6053;51.382;6.768;2023-05-11T05:28:53;101077.81;;;17.52;100.00
11987;BME280;6053;51.382;6.768;2023-05-11T05:31:21;101081.03;;;16.91;100.00
11987;BME280;6053;51.382;6.768;2023-05-11T05:33:51;101076.69;;;16.46;100.00
11987;BME280;6053;51.382;6.768;2023-05-11T05:36:20;101091.13;;;17.02;100.00
11987;BME280;6053;51.382;6.768;2023-05-11T05:38:49;101092.81;;;16.44;100.00
11987;BME280;6053;51.382;6.768;2023-05-11T05:41:17;101095.47;;;15.63;100.00
11987;BME280;6053;51.382;6.768;2023-05-11T05:43:48;101093.59;;;16.39;100.00
11987;BME280;6053;51.382;6.768;2023-05-11T05:46:17;101099.81;;;17.06;100.00
11987;BME280;6053;51.382;6.768;2023-05-11T05:48:45;101107.41;;;17.15;100.00
11987;BME280;6053;51.382;6.768;2023-05-11T05:51:14;101106.22;;;17.06;100.00
11987;BME280;6053;51.382;6.768;2023-05-11T05:53:43;101120.28;;;17.22;100.00
11987;BME280;6053;51.382;6.768;2023-05-11T05:56:12;101112.03;;;17.42;100.00
11987;BME280;6053;51.382;6.768;2023-05-11T05:58:40;101108.13;;;17.43;100.00
11987;BME280;6053;51.382;6.768;2023-05-11T06:01:09;101118.44;;;16.73;100.00
11987;BME280;6053;51.382;6.768;2023-05-11T06:03:37;101119.59;;;17.04;100.00
11987;BME280;6053;51.382;6.768;2023-05-11T06:06:06;101115.50;;;17.17;100.00
11987;BME280;6053;51.382;6.768;2023-05-11T06:08:35;101120.06;;;17.33;100.00
11987;BME280;6053;51.382;6.768;2023-05-11T06:11:04;101118.97;;;15.55;100.00
11987;BME280;6053;51.382;6.768;2023-05-11T06:13:33;101117.47;;;16.08;100.00
11987;BME280;6053;51.382;6.768;2023-05-11T06:16:01;101116.94;;;16.87;100.00
11987;BME280;6053;51.382;6.768;2023-05-11T06:18:29;101115.22;;;16.81;100.00
11987;BME280;6053;51.382;6.768;2023-05-11T06:20:58;101119.13;;;17.17;100.00
11987;BME280;6053;51.382;6.768;2023-05-11T06:23:26;101108.41;;;17.41;100.00
11987;BME280;6053;51.382;6.768;2023-05-11T06:25:54;101107.66;;;17.51;100.00
11987;BME280;6053;51.382;6.768;2023-05-11T06:28:24;101116.88;;;17.57;100.00
11987;BME280;6053;51.382;6.768;2023-05-11T06:30:55;101124.16;;;17.58;100.00
11987;BME280;6053;51.382;6.768;2023-05-11T06:33:25;101115.25;;;17.66;100.00
11987;BME280;6053;51.382;6.768;2023-05-11T06:35:53;101115.84;;;17.73;100.00
11987;BME280;6053;51.382;6.768;2023-05-11T06:38:22;101115.25;;;17.61;100.00
11987;BME280;6053;51.382;6.768;2023-05-11T06:40:51;101109.25;;;17.84;100.00
11987;BME280;6053;51.382;6.768;2023-05-11T06:43:20;101112.41;;;18.08;100.00
11987;BME280;6053;51.382;6.768;2023-05-11T06:45:49;101113.56;;;18.23;100.00
11987;BME280;6053;51.382;6.768;2023-05-11T06:48:18;101123.38;;;18.35;100.00
11987;BME280;6053;51.382;6.768;2023-05-11T06:50:49;101110.81;;;17.70;100.00
11987;BME280;6053;51.382;6.768;2023-05-11T06:53:17;101118.84;;;18.09;100.00
11987;BME280;6053;51.382;6.768;2023-05-11T06:55:46;101122.66;;;17.93;100.00
11987;BME280;6053;51.382;6.768;2023-05-11T06:58:14;101119.38;;;18.01;100.00
11987;BME280;6053;51.382;6.768;2023-05-11T07:00:46;101111.22;;;17.89;100.00
11987;BME280;6053;51.382;6.768;2023-05-11T07:03:16;101111.38;;;18.40;100.00
11987;BME280;6053;51.382;6.768;2023-05-11T07:05:44;101121.25;;;18.73;100.00
11987;BME280;6053;51.382;6.768;2023-05-11T07:08:12;101114.75;;;18.68;100.00
11987;BME280;6053;51.382;6.768;2023-05-11T07:10:41;101120.06;;;18.64;100.00
11987;BME280;6053;51.382;6.768;2023-05-11T07:13:09;101113.06;;;18.41;100.00
11987;BME280;6053;51.382;6.768;2023-05-11T07:15:37;101110.34;;;18.72;100.00
11987;BME280;6053;51.382;6.768;2023-05-11T07:18:06;101117.56;;;19.49;100.00
11987;BME280;6053;51.382;6.768;2023-05-11T07:20:35;101107.78;;;17.77;100.00
11987;BME280;6053;51.382;6.768;2023-05-11T07:23:06;101114.25;;;18.76;100.00
11987;BME280;6053;51.382;6.768;2023-05-11T07:25:34;101119.44;;;20.44;100.00
11987;BME280;6053;51.382;6.768;2023-05-11T07:28:02;101109.50;;;18.97;100.00
11987;BME280;6053;51.382;6.768;2023-05-11T07:30:30;101107.81;;;19.26;100.00
11987;BME280;6053;51.382;6.768;2023-05-11T07:32:59;101109.16;;;19.65;100.00
11987;BME280;6053;51.382;6.768;2023-05-11T07:35:28;101118.41;;;18.48;100.00
11987;BME280;6053;51.382;6.768;2023-05-11T07:37:58;101118.78;;;17.99;100.00
11987;BME280;6053;51.382;6.768;2023-05-11T07:40:26;101119.47;;;18.36;100.00
11987;BME280;6053;51.382;6.768;2023-05-11T07:42:54;101111.75;;;17.38;100.00
11987;BME280;6053;51.382;6.768;2023-05-11T07:45:23;101113.81;;;18.11;100.00
11987;BME280;6053;51.382;6.768;2023-05-11T07:47:51;101120.56;;;18.25;100.00
11987;BME280;6053;51.382;6.768;2023-05-11T07:50:19;101118.34;;;18.37;100.00
11987;BME280;6053;51.382;6.768;2023-05-11T07:52:50;101118.75;;;19.02;100.00
11987;BME280;6053;51.382;6.768;2023-05-11T07:55:20;101125.16;;;19.39;100.00
11987;BME280;6053;51.382;6.768;2023-05-11T07:57:51;101118.69;;;19.38;100.00
11987;BME280;6053;51.382;6.768;2023-05-11T08:00:20;101121.47;;;19.69;100.00
11987;BME280;6053;51.382;6.768;2023-05-11T08:02:49;101122.63;;;19.42;100.00
11987;BME280;6053;51.382;6.768;2023-05-11T08:05:19;101121.59;;;21.36;100.00
11987;BME280;6053;51.382;6.768;2023-05-11T08:07:48;101115.25;;;20.42;100.00
11987;BME280;6053;51.382;6.768;2023-05-11T08:10:16;101118.47;;;19.04;100.00
11987;BME280;6053;51.382;6.768;2023-05-11T08:12:46;101112.72;;;19.96;100.00
11987;BME280;6053;51.382;6.768;2023-05-11T08:15:14;101113.34;;;19.57;100.00
11987;BME280;6053;51.382;6.768;2023-05-11T08:17:43;101118.75;;;20.68;100.00
11987;BME280;6053;51.382;6.768;2023-05-11T08:20:12;101122.63;;;21.11;100.00
11987;BME280;6053;51.382;6.768;2023-05-11T08:22:41;101122.97;;;20.70;100.00
11987;BME280;6053;51.382;6.768;2023-05-11T08:25:09;101124.25;;;20.39;100.00
11987;BME280;6053;51.382;6.768;2023-05-11T08:27:38;101128.41;;;19.82;100.00
11987;BME280;6053;51.382;6.768;2023-05-11T08:30:09;101120.78;;;18.08;100.00
11987;BME280;6053;51.382;6.768;2023-05-11T08:32:38;101116.06;;;17.19;100.00
11987;BME280;6053;51.382;6.768;2023-05-11T08:35:24;101123.78;;;17.44;100.00
11987;BME280;6053;51.382;6.768;2023-05-11T08:37:52;101123.19;;;17.42;100.00
11987;BME280;6053;51.382;6.768;2023-05-11T08:40:21;101124.38;;;16.27;100.00
11987;BME280;6053;51.382;6.768;2023-05-11T08:42:54;101125.31;;;16.11;100.00
11987;BME280;6053;51.382;6.768;2023-05-11T08:45:25;101129.41;;;15.65;100.00
11987;BME280;6053;51.382;6.768;2023-05-11T08:47:54;101132.25;;;16.85;100.00
11987;BME280;6053;51.382;6.768;2023-05-11T08:50:22;101135.38;;;16.66;100.00
11987;BME280;6053;51.382;6.768;2023-05-11T08:52:51;101134.28;;;16.67;100.00
11987;BME280;6053;51.382;6.768;2023-05-11T08:55:20;101139.25;;;17.25;100.00
11987;BME280;6053;51.382;6.768;2023-05-11T08:57:49;101140.28;;;16.81;100.00
11987;BME280;6053;51.382;6.768;2023-05-11T09:00:20;101140.84;;;17.10;100.00
11987;BME280;6053;51.382;6.768;2023-05-11T09:02:50;101144.69;;;17.41;100.00
11987;BME280;6053;51.382;6.768;2023-05-11T09:05:19;101137.47;;;17.13;100.00
11987;BME280;6053;51.382;6.768;2023-05-11T09:07:51;101135.47;;;17.41;100.00
11987;BME280;6053;51.382;6.768;2023-05-11T09:10:21;101135.88;;;17.23;100.00
11987;BME280;6053;51.382;6.768;2023-05-11T09:12:49;101139.41;;;17.93;100.00
11987;BME280;6053;51.382;6.768;2023-05-11T09:15:18;101138.78;;;17.01;100.00
11987;BME280;6053;51.382;6.768;2023-05-11T09:17:47;101134.31;;;16.72;100.00
11987;BME280;6053;51.382;6.768;2023-05-11T09:20:26;101134.59;;;16.44;100.00
11987;BME280;6053;51.382;6.768;2023-05-11T09:22:55;101127.41;;;16.75;100.00
11987;BME280;6053;51.382;6.768;2023-05-11T09:25:25;101133.53;;;17.04;100.00
11987;BME280;6053;51.382;6.768;2023-05-11T09:27:54;101137.00;;;16.62;100.00
11987;BME280;6053;51.382;6.768;2023-05-11T09:30:24;101132.78;;;16.60;100.00
11987;BME280;6053;51.382;6.768;2023-05-11T09:32:55;101130.84;;;17.19;100.00
11987;BME280;6053;51.382;6.768;2023-05-11T09:35:26;101138.34;;;18.04;100.00
11987;BME280;6053;51.382;6.768;2023-05-11T09:38:04;101136.44;;;17.67;100.00
11987;BME280;6053;51.382;6.768;2023-05-11T09:40:35;101133.59;;;17.52;100.00
11987;BME280;6053;51.382;6.768;2023-05-11T09:43:15;101134.28;;;17.32;100.00
11987;BME280;6053;51.382;6.768;2023-05-11T09:45:45;101136.88;;;17.43;100.00
11987;BME280;6053;51.382;6.768;2023-05-11T09:48:27;101137.91;;;17.32;100.00
11987;BME280;6053;51.382;6.768;2023-05-11T09:51:03;101133.03;;;18.02;100.00
11987;BME280;6053;51.382;6.768;2023-05-11T09:53:40;101138.16;;;17.73;100.00
11987;BME280;6053;51.382;6.768;2023-05-11T09:56:10;101138.09;;;17.58;100.00
11987;BME280;6053;51.382;6.768;2023-05-11T09:58:48;101138.69;;;17.65;100.00
11987;BME280;6053;51.382;6.768;2023-05-11T10:01:27;101139.97;;;17.89;100.00
11987;BME280;6053;51.382;6.768;2023-05-11T10:03:58;101145.63;;;18.10;100.00
11987;BME280;6053;51.382;6.768;2023-05-11T10:06:51;101149.16;;;17.85;100.00
11987;BME280;6053;51.382;6.768;2023-05-11T10:09:23;101142.84;;;18.10;100.00
11987;BME280;6053;51.382;6.768;2023-05-11T10:11:53;101144.31;;;18.33;100.00
11987;BME280;6053;51.382;6.768;2023-05-11T10:14:23;101134.69;;;18.97;100.00
11987;BME280;6053;51.382;6.768;2023-05-11T10:16:53;101133.00;;;19.01;100.00
11987;BME280;6053;51.382;6.768;2023-05-11T10:19:24;101139.22;;;18.09;100.00
11987;BME280;6053;51.382;6.768;2023-05-11T10:21:54;101135.81;;;18.86;100.00
11987;BME280;6053;51.382;6.768;2023-05-11T10:24:24;101135.75;;;18.70;100.00
11987;BME280;6053;51.382;6.768;2023-05-11T10:26:54;101130.50;;;19.10;100.00
11987;BME280;6053;51.382;6.768;2023-05-11T10:29:23;101138.88;;;19.30;100.00
11987;BME280;6053;51.382;6.768;2023-05-11T10:31:52;101125.44;;;19.27;100.00
11987;BME280;6053;51.382;6.768;2023-05-11T10:34:21;101127.63;;;19.50;100.00
11987;BME280;6053;51.382;6.768;2023-05-11T10:36:51;101128.81;;;20.24;100.00
11987;BME280;6053;51.382;6.768;2023-05-11T10:39:21;101128.19;;;19.52;100.00
11987;BME280;6053;51.382;6.768;2023-05-11T10:42:15;101131.00;;;19.47;100.00
11987;BME280;6053;51.382;6.768;2023-05-11T10:45:11;101129.78;;;19.94;100.00
11987;BME280;6053;51.382;6.768;2023-05-11T10:48:29;101128.38;;;19.92;100.00
11987;BME280;6053;51.382;6.768;2023-05-11T10:54:47;101122.63;;;19.42;100.00
11987;BME280;6053;51.382;6.768;2023-05-11T10:57:47;101126.63;;;20.11;100.00
11987;BME280;6053;51.382;6.768;2023-05-11T11:03:56;101137.31;;;20.04;100.00
11987;BME280;6053;51.382;6.768;2023-05-11T11:06:25;101134.06;;;19.66;100.00
11987;BME280;6053;51.382;6.768;2023-05-11T11:08:56;101134.63;;;19.73;100.00
11987;BME280;6053;51.382;6.768;2023-05-11T11:11:33;101131.25;;;19.61;100.00
11987;BME280;6053;51.382;6.768;2023-05-11T11:14:03;101129.28;;;19.82;100.00
11987;BME280;6053;51.382;6.768;2023-05-11T11:16:32;101129.44;;;20.11;100.00
11987;BME280;6053;51.382;6.768;2023-05-11T11:19:35;101123.34;;;19.94;100.00
11987;BME280;6053;51.382;6.768;2023-05-11T11:22:05;101122.22;;;19.95;100.00
11987;BME280;6053;51.382;6.768;2023-05-11T11:24:45;101125.22;;;20.19;100.00
11987;BME280;6053;51.382;6.768;2023-05-11T11:27:15;101120.97;;;19.36;100.00
11987;BME280;6053;51.382;6.768;2023-05-11T11:30:15;101115.56;;;20.35;100.00
11987;BME280;6053;51.382;6.768;2023-05-11T11:32:44;101119.44;;;19.90;100.00
11987;BME280;6053;51.382;6.768;2023-05-11T11:35:45;101114.97;;;20.43;100.00
11987;BME280;6053;51.382;6.768;2023-05-11T11:38:16;101115.81;;;20.44;97.98
11987;BME280;6053;51.382;6.768;2023-05-11T11:40:46;101118.50;;;20.64;97.01
11987;BME280;6053;51.382;6.768;2023-05-11T11:43:21;101112.56;;;20.76;99.83
11987;BME280;6053;51.382;6.768;2023-05-11T11:45:52;101111.09;;;20.39;93.80
11987;BME280;6053;51.382;6.768;2023-05-11T11:48:28;101107.13;;;19.91;100.00
11987;BME280;6053;51.382;6.768;2023-05-11T11:51:02;101106.06;;;20.36;97.82
11987;BME280;6053;51.382;6.768;2023-05-11T11:54:04;101117.22;;;20.41;87.75
11987;BME280;6053;51.382;6.768;2023-05-11T11:56:40;101101.56;;;19.81;92.71
11987;BME280;6053;51.382;6.768;2023-05-11T11:59:14;101114.38;;;20.57;100.00
11987;BME280;6053;51.382;6.768;2023-05-11T12:01:43;101105.97;;;20.57;94.68
11987;BME280;6053;51.382;6.768;2023-05-11T12:04:55;101108.34;;;20.29;100.00
11987;BME280;6053;51.382;6.768;2023-05-11T12:07:24;101106.41;;;19.34;99.51
11987;BME280;6053;51.382;6.768;2023-05-11T12:09:53;101109.16;;;19.70;100.00
11987;BME280;6053;51.382;6.768;2023-05-11T12:12:22;101095.06;;;19.95;100.00
11987;BME280;6053;51.382;6.768;2023-05-11T12:14:52;101102.50;;;20.20;100.00
11987;BME280;6053;51.382;6.768;2023-05-11T12:17:26;101099.59;;;19.81;97.90
11987;BME280;6053;51.382;6.768;2023-05-11T12:20:11;101103.66;;;20.14;97.82
11987;BME280;6053;51.382;6.768;2023-05-11T12:22:39;101104.88;;;19.93;100.00
11987;BME280;6053;51.382;6.768;2023-05-11T12:25:09;101101.88;;;19.69;100.00
11987;BME280;6053;51.382;6.768;2023-05-11T12:27:48;101098.56;;;19.36;100.00
11987;BME280;6053;51.382;6.768;2023-05-11T12:30:22;101097.31;;;19.88;100.00
11987;BME280;6053;51.382;6.768;2023-05-11T12:32:51;101098.03;;;20.19;100.00
11987;BME280;6053;51.382;6.768;2023-05-11T12:35:25;101100.28;;;18.86;100.00
11987;BME280;6053;51.382;6.768;2023-05-11T12:37:55;101096.56;;;19.57;100.00
11987;BME280;6053;51.382;6.768;2023-05-11T12:40:24;101083.25;;;18.93;100.00
11987;BME280;6053;51.382;6.768;2023-05-11T12:42:54;101090.75;;;19.33;100.00
11987;BME280;6053;51.382;6.768;2023-05-11T12:45:26;101083.78;;;19.15;100.00
11987;BME280;6053;51.382;6.768;2023-05-11T12:47:56;101082.28;;;18.16;100.00
11987;BME280;6053;51.382;6.768;2023-05-11T12:50:25;101082.69;;;17.29;100.00
11987;BME280;6053;51.382;6.768;2023-05-11T12:52:53;101077.09;;;17.77;100.00
11987;BME280;6053;51.382;6.768;2023-05-11T12:55:28;101076.72;;;18.26;100.00
11987;BME280;6053;51.382;6.768;2023-05-11T12:58:06;101073.34;;;18.24;100.00
11987;BME280;6053;51.382;6.768;2023-05-11T13:00:48;101075.41;;;18.79;100.00
11987;BME280;6053;51.382;6.768;2023-05-11T13:03:20;101080.44;;;18.93;100.00
11987;BME280;6053;51.382;6.768;2023-05-11T13:05:50;101073.63;;;18.17;100.00
11987;BME280;6053;51.382;6.768;2023-05-11T13:08:19;101075.13;;;18.86;100.00
11987;BME280;6053;51.382;6.768;2023-05-11T13:10:47;101072.84;;;18.42;100.00
11987;BME280;6053;51.382;6.768;2023-05-11T13:13:28;101074.25;;;18.45;100.00
11987;BME280;6053;51.382;6.768;2023-05-11T13:15:58;101067.31;;;18.83;100.00
11987;BME280;6053;51.382;6.768;2023-05-11T13:18:26;101070.06;;;18.68;100.00
11987;BME280;6053;51.382;6.768;2023-05-11T13:21:05;101067.28;;;18.52;100.00